Time;durP1;ratioP1;P1;durP2;ratioP2;P2;SDS_P1;SDS_P2;PMS_P1;PMS_P2;Temp;Humidity;BMP_temperature;BMP_pressure;BME280_temperature;BME280_humidity;BME280_pressure;Samples;Min_cycle;Max_cycle;Signal;HPM_P1;HPM_P2
2022/11/09 00:00:09;;;;;;;15.13;13.63;;;;;;;11.31;100.00;-8849.31;5052807;28;20208;-57
2022/11/09 00:02:36;;;;;;;14.87;13.60;;;;;;;11.40;100.00;-8850.19;5052286;28;20216;-57
2022/11/09 00:05:04;;;;;;;14.80;13.30;;;;;;;11.54;100.00;-8851.38;5052541;28;20272;-58
2022/11/09 00:07:31;;;;;;;15.77;13.67;;;;;;;11.52;100.00;-7255.09;5052523;28;20690;-58
2022/11/09 00:09:59;;;;;;;18.63;15.60;;;;;;;11.64;100.00;-6936.50;5052537;28;20181;-57
2022/11/09 00:12:28;;;;;;;17.10;15.10;;;;;;;11.65;100.00;-6936.56;5052378;28;20181;-57
2022/11/09 00:14:55;;;;;;;17.73;15.20;;;;;;;11.74;100.00;-6617.63;5052279;28;20189;-58
2022/11/09 00:17:22;;;;;;;16.43;14.80;;;;;;;11.83;100.00;-5659.44;5052178;28;20205;-57
2022/11/09 00:19:49;;;;;;;14.90;13.70;;;;;;;11.82;100.00;-4700.44;5034337;28;20277;-59
2022/11/09 00:22:16;;;;;;;16.17;14.43;;;;;;;11.86;100.00;-3741.19;5051929;28;20228;-57
2022/11/09 00:24:43;;;;;;;18.13;14.90;;;;;;;11.88;100.00;-3421.38;5034411;28;20607;-57
2022/11/09 00:27:11;;;;;;;16.80;13.87;;;;;;;11.74;100.00;-3741.09;5052211;28;20669;-57
2022/11/09 00:29:38;;;;;;;16.63;14.07;;;;;;;11.72;100.00;-6617.53;5052489;28;20185;-57
2022/11/09 00:32:05;;;;;;;16.17;13.73;;;;;;;11.71;100.00;-7575.72;5051623;28;20684;-58
2022/11/09 00:34:32;;;;;;;15.63;14.10;;;;;;;11.54;100.00;-8851.41;5051646;28;20640;-58
2022/11/09 00:36:59;;;;;;;19.80;14.50;;;;;;;11.64;100.00;-10447.91;5051457;28;20201;-57
2022/11/09 00:39:26;;;;;;;15.53;14.13;;;;;;;11.43;100.00;-12039.91;5033974;28;20186;-57
2022/11/09 00:41:53;;;;;;;15.40;14.10;;;;;;;11.75;100.00;-12682.25;5051890;28;20185;-58
2022/11/09 00:44:21;;;;;;;22.43;13.97;;;;;;;11.58;100.00;-12679.56;5051520;28;20276;-57
2022/11/09 00:46:49;;;;;;;16.83;13.70;;;;;;;11.80;100.00;-12364.03;5051664;28;20201;-58
2022/11/09 00:49:16;;;;;;;16.47;14.40;;;;;;;11.91;100.00;-11408.50;5051554;28;20273;-58
2022/11/09 00:51:43;;;;;;;18.23;13.83;;;;;;;12.03;100.00;-10771.72;5051392;28;20227;-57
2022/11/09 00:54:10;;;;;;;16.97;13.53;;;;;;;12.16;100.00;-10773.25;5051640;28;20640;-57
2022/11/09 00:56:37;;;;;;;17.20;13.57;;;;;;;12.21;100.00;-10454.53;5051589;28;20257;-57
2022/11/09 00:59:04;;;;;;;14.37;13.17;;;;;;;12.14;100.00;-8537.31;5051635;28;20209;-57
2022/11/09 01:01:32;;;;;;;17.90;13.30;;;;;;;12.12;100.00;-7578.56;5050778;28;20221;-58
2022/11/09 01:03:59;;;;;;;16.37;14.27;;;;;;;11.64;100.00;-8852.34;5051465;28;20632;-57
2022/11/09 01:06:26;;;;;;;13.93;12.73;;;;;;;11.89;100.00;-11089.13;5051277;28;20247;-57
2022/11/09 01:08:53;;;;;;;14.80;13.07;;;;;;;11.78;100.00;-12363.78;5051528;28;20188;-59
2022/11/09 01:11:21;;;;;;;18.63;12.77;;;;;;;11.92;100.00;-13322.69;5051265;28;20182;-57
2022/11/09 01:13:49;;;;;;;17.30;13.87;;;;;;;12.14;100.00;-13007.22;5051577;28;20621;-58
2022/11/09 01:16:18;;;;;;;15.47;12.43;;;;;;;12.11;100.00;-11730.34;5051460;28;20276;-58
2022/11/09 01:18:46;;;;;;;21.53;14.07;;;;;;;12.23;100.00;-11093.47;5050986;28;20205;-58
2022/11/09 01:21:15;;;;;;;15.73;14.00;;;;;;;12.32;100.00;-10455.88;5051062;28;20280;-57
2022/11/09 01:23:43;;;;;;;21.10;13.97;;;;;;;12.38;100.00;-9498.09;5051051;28;20240;-58
2022/11/09 01:26:12;;;;;;;21.50;13.50;;;;;;;12.40;100.00;-7580.50;5051475;28;20648;-58
2022/11/09 01:28:39;;;;;;;16.37;13.10;;;;;;;12.49;100.00;-5981.94;5051139;28;20181;-57
2022/11/09 01:31:10;;;;;;;17.70;13.87;;;;;;;12.58;100.00;-5022.28;5050918;28;20185;-57
2022/11/09 01:33:36;;;;;;;25.23;12.57;;;;;;;12.58;100.00;-4702.22;5051022;28;20189;-57
2022/11/09 01:36:06;;;;;;;14.00;12.73;;;;;;;12.63;100.00;-5022.41;5051271;28;20656;-58
2022/11/09 01:38:33;;;;;;;15.40;13.13;;;;;;;12.61;100.00;-4702.25;5050945;28;20206;-57
2022/11/09 01:41:00;;;;;;;12.33;11.23;;;;;;;12.62;100.00;-5022.38;5051014;28;20192;-59
2022/11/09 01:43:28;;;;;;;17.60;12.40;;;;;;;12.76;100.00;-4382.41;5051009;28;20197;-57
2022/11/09 01:45:59;;;;;;;17.53;12.57;;;;;;;12.66;100.00;-3741.84;5050960;28;20189;-58
2022/11/09 01:48:34;;;;;;;14.13;12.77;;;;;;;12.72;100.00;-3741.88;5050892;28;20181;-57
2022/11/09 01:51:06;;;;;;;13.23;11.90;;;;;;;12.65;100.00;-4062.03;5050841;28;20235;-56
2022/11/09 01:53:37;;;;;;;14.30;12.10;;;;;;;12.78;100.00;-3741.94;5050772;28;20177;-57
2022/11/09 01:56:08;;;;;;;13.83;12.03;;;;;;;12.84;100.00;-3101.28;5051142;28;20190;-57
2022/11/09 01:58:41;;;;;;;13.60;12.30;;;;;;;12.81;100.00;-2460.47;5050786;28;20297;-58
2022/11/09 02:01:10;;;;;;;14.70;13.33;;;;;;;12.73;100.00;-2460.56;5051007;28;20232;-57
2022/11/09 02:03:42;;;;;;;13.67;12.47;;;;;;;12.66;100.00;-858.50;5050873;28;20181;-58
2022/11/09 02:06:14;;;;;;;14.17;12.70;;;;;;;12.81;100.00;424.69;5050786;28;20197;-57
2022/11/09 02:08:43;;;;;;;13.60;12.50;;;;;;;12.83;100.00;1066.38;5050607;28;20299;-56
2022/11/09 02:11:12;;;;;;;14.93;13.23;;;;;;;12.75;100.00;745.06;5050973;28;20655;-57
2022/11/09 02:13:42;;;;;;;13.40;12.13;;;;;;;12.69;100.00;-1178.91;5052082;28;20201;-58
2022/11/09 02:16:12;;;;;;;15.37;12.47;;;;;;;12.70;100.00;-1819.81;5054503;28;20192;-58
2022/11/09 02:18:42;;;;;;;13.50;12.00;;;;;;;12.78;100.00;-1819.63;5054567;28;20213;-57
2022/11/09 02:21:11;;;;;;;13.73;12.23;;;;;;;12.82;100.00;-1499.00;5054113;28;20269;-57
2022/11/09 02:23:38;;;;;;;13.30;11.97;;;;;;;12.84;100.00;-1178.38;5054099;28;20186;-57
2022/11/09 02:26:09;;;;;;;14.93;12.10;;;;;;;12.87;100.00;-216.41;5054310;28;20189;-57
2022/11/09 02:28:39;;;;;;;16.97;12.00;;;;;;;12.93;100.00;746.22;5054131;28;20277;-58
2022/11/09 02:31:10;;;;;;;17.00;11.57;;;;;;;12.99;100.00;746.56;5054154;28;20609;-57
2022/11/09 02:33:43;;;;;;;16.80;11.87;;;;;;;12.91;100.00;1708.56;5054040;28;20265;-56
2022/11/09 02:36:12;;;;;;;12.80;11.57;;;;;;;12.95;100.00;2029.88;5054393;28;20197;-58
2022/11/09 02:38:39;;;;;;;13.93;10.53;;;;;;;12.94;100.00;2029.78;5053912;28;20213;-57
2022/11/09 02:41:07;;;;;;;15.33;10.97;;;;;;;12.91;100.00;2350.47;5054162;28;20186;-58
2022/11/09 02:43:35;;;;;;;10.77;9.83;;;;;;;12.82;100.00;745.50;5054089;28;20190;-57
2022/11/09 02:46:02;;;;;;;11.53;10.40;;;;;;;12.73;100.00;424.25;5053765;28;20232;-58
2022/11/09 02:48:29;;;;;;;13.50;10.30;;;;;;;12.78;100.00;424.53;5053997;28;20606;-57
2022/11/09 02:50:56;;;;;;;12.83;10.83;;;;;;;12.73;100.00;-537.66;5054004;28;20190;-57
2022/11/09 02:53:24;;;;;;;11.30;10.10;;;;;;;12.77;100.00;-858.06;5053821;28;20185;-57
2022/11/09 02:55:51;;;;;;;10.37;9.37;;;;;;;12.74;100.00;-1178.72;5053592;28;20248;-57
2022/11/09 02:58:18;;;;;;;11.53;9.80;;;;;;;12.76;100.00;-1178.63;5053528;28;20583;-57
2022/11/09 03:00:45;;;;;;;10.83;9.97;;;;;;;12.75;100.00;-216.97;5053743;28;20185;-58
2022/11/09 03:03:12;;;;;;;11.27;10.37;;;;;;;12.76;100.00;424.41;5053437;28;20243;-57
2022/11/09 03:05:39;;;;;;;10.67;9.73;;;;;;;12.68;100.00;1065.31;5053729;28;20648;-57
2022/11/09 03:08:06;;;;;;;10.50;9.70;;;;;;;12.70;100.00;1065.44;5053561;28;20265;-57
2022/11/09 03:10:34;;;;;;;11.90;10.00;;;;;;;12.74;100.00;744.97;5053267;28;20186;-57
2022/11/09 03:13:01;;;;;;;10.50;9.60;;;;;;;12.69;100.00;744.69;5053261;28;20189;-57
2022/11/09 03:15:28;;;;;;;12.27;10.03;;;;;;;12.83;100.00;1707.97;5053063;28;20196;-57
2022/11/09 03:17:56;;;;;;;10.83;9.90;;;;;;;12.83;100.00;3312.66;5052911;28;20192;-57
2022/11/09 03:20:23;;;;;;;11.27;10.57;;;;;;;12.73;100.00;2669.75;5053396;28;20662;-57
2022/11/09 03:22:50;;;;;;;11.03;10.13;;;;;;;12.59;100.00;2347.56;5053335;28;20707;-58
2022/11/09 03:25:17;;;;;;;15.87;10.90;;;;;;;12.70;100.00;2027.72;5044161;28;20185;-57
2022/11/09 03:27:45;;;;;;;11.57;10.50;;;;;;;12.61;100.00;2347.78;5053363;28;20268;-57
2022/11/09 03:30:12;;;;;;;11.17;10.23;;;;;;;12.67;100.00;3310.91;5053188;28;20284;-57
2022/11/09 03:32:39;;;;;;;12.33;11.23;;;;;;;12.61;100.00;4915.13;5053108;28;20233;-57
2022/11/09 03:35:07;;;;;;;11.40;10.30;;;;;;;12.50;100.00;4592.69;5053083;28;20192;-57
2022/11/09 03:37:34;;;;;;;11.93;10.97;;;;;;;12.42;100.00;3308.25;5053106;28;20264;-57
2022/11/09 03:40:01;;;;;;;11.73;10.73;;;;;;;12.44;100.00;2025.50;5035320;28;20215;-56
2022/11/09 03:42:27;;;;;;;13.17;11.17;;;;;;;12.48;100.00;1384.53;5053001;28;20192;-58
2022/11/09 03:44:56;;;;;;;14.37;11.30;;;;;;;12.54;100.00;743.66;5052887;28;20185;-57
2022/11/09 03:47:22;;;;;;;11.87;10.73;;;;;;;12.52;100.00;2026.22;5052802;28;20243;-57
2022/11/09 03:49:49;;;;;;;12.53;11.43;;;;;;;12.44;100.00;2346.19;5052851;28;20185;-58
2022/11/09 03:52:16;;;;;;;13.20;11.50;;;;;;;12.39;100.00;1704.41;5044596;28;20185;-57
2022/11/09 03:54:43;;;;;;;12.63;11.30;;;;;;;12.38;100.00;1383.75;5052632;28;20195;-57
2022/11/09 03:57:10;;;;;;;12.77;11.47;;;;;;;12.41;100.00;1063.38;5052717;28;20191;-59
2022/11/09 03:59:37;;;;;;;12.37;11.23;;;;;;;12.36;100.00;1383.66;5052898;28;20615;-57
2022/11/09 04:02:05;;;;;;;15.03;11.33;;;;;;;12.30;100.00;742.19;5052950;28;20194;-57
2022/11/09 04:04:32;;;;;;;11.13;10.47;;;;;;;12.28;100.00;421.59;5052758;28;20644;-57
2022/11/09 04:06:59;;;;;;;12.27;11.20;;;;;;;12.26;100.00;1062.38;5052841;28;20655;-57
2022/11/09 04:09:26;;;;;;;11.87;10.87;;;;;;;12.27;100.00;741.94;5052326;28;20221;-57
2022/11/09 04:11:52;;;;;;;12.20;11.23;;;;;;;12.25;100.00;100.97;5052667;28;20553;-57
2022/11/09 04:14:19;;;;;;;15.37;11.70;;;;;;;12.14;100.00;-1180.72;5052627;28;20208;-56
2022/11/09 04:16:46;;;;;;;13.47;11.63;;;;;;;12.07;100.00;-1501.09;5052429;28;20552;-57
2022/11/09 04:19:15;;;;;;;12.70;11.53;;;;;;;12.10;100.00;-1821.16;5052198;28;20231;-58
2022/11/09 04:21:42;;;;;;;12.60;11.33;;;;;;;12.13;100.00;-2141.25;5052504;28;20189;-57
2022/11/09 04:24:09;;;;;;;13.23;11.53;;;;;;;12.10;100.00;-2461.38;5052182;28;20185;-57
2022/11/09 04:26:36;;;;;;;19.40;11.90;;;;;;;12.18;100.00;-2781.38;5052454;28;20269;-57
2022/11/09 04:29:03;;;;;;;12.57;11.47;;;;;;;12.26;100.00;-2461.16;5052108;28;20256;-57
2022/11/09 04:31:30;;;;;;;17.63;11.93;;;;;;;12.25;100.00;-2141.03;5040086;28;20239;-57
2022/11/09 04:33:56;;;;;;;18.30;11.93;;;;;;;12.15;100.00;-1500.91;5072353;28;20195;-57
2022/11/09 04:36:25;;;;;;;18.53;12.40;;;;;;;12.12;100.00;-1821.13;5071920;28;20195;-58
2022/11/09 04:38:52;;;;;;;21.77;12.37;;;;;;;12.04;100.00;-3741.34;5071916;28;20322;-57
2022/11/09 04:41:19;;;;;;;17.10;12.70;;;;;;;12.06;100.00;-4381.16;5072345;28;20239;-57
2022/11/09 04:43:46;;;;;;;24.87;12.47;;;;;;;12.11;100.00;-4381.22;5071815;28;20196;-58
2022/11/09 04:46:12;;;;;;;26.97;13.87;;;;;;;11.94;100.00;-5659.84;5071916;28;20197;-57
2022/11/09 04:48:39;;;;;;;22.07;14.40;;;;;;;12.08;100.00;-5660.41;5071710;28;20273;-57
2022/11/09 04:51:09;;;;;;;27.77;15.83;;;;;;;12.25;100.00;-5341.22;5072235;28;20206;-57
2022/11/09 04:53:38;;;;;;;21.13;14.40;;;;;;;12.22;100.00;-3741.50;5071753;28;20189;-58
2022/11/09 04:56:06;;;;;;;32.17;16.27;;;;;;;12.30;100.00;-3421.50;5054397;28;20555;-58
2022/11/09 04:58:34;;;;;;;38.47;17.50;;;;;;;12.34;100.00;-3741.59;5071578;28;20188;-57
2022/11/09 05:01:03;;;;;;;42.30;17.90;;;;;;;12.14;100.00;-3101.44;5071741;28;20181;-57
2022/11/09 05:03:30;;;;;;;35.73;17.17;;;;;;;12.24;100.00;-3101.41;5071729;28;20203;-56
2022/11/09 05:05:57;;;;;;;39.87;17.97;;;;;;;12.38;100.00;-3101.38;5071525;28;20192;-57
2022/11/09 05:08:24;;;;;;;32.57;16.80;;;;;;;12.38;100.00;-2461.03;5071568;28;20255;-56
2022/11/09 05:10:56;;;;;;;39.20;17.03;;;;;;;12.41;100.00;-1500.19;5071850;28;20169;-56
2022/11/09 05:13:23;;;;;;;39.97;16.30;;;;;;;12.31;100.00;-1500.44;5071465;28;20199;-57
2022/11/09 05:15:50;;;;;;;42.83;16.87;;;;;;;12.35;100.00;-1180.03;5071890;28;20189;-57
2022/11/09 05:18:17;;;;;;;28.80;15.03;;;;;;;12.38;100.00;-1179.94;5071419;28;20235;-58
2022/11/09 05:20:44;;;;;;;25.63;16.03;;;;;;;12.46;100.00;-1179.66;5053611;28;20205;-57
2022/11/09 05:25:56;;;;;;;45.30;16.67;;;;;;;12.59;100.00;-217.72;5072016;28;20175;-57
2022/11/09 05:28:23;;;;;;;40.33;17.03;;;;;;;12.60;100.00;744.06;5071312;28;20191;-57
2022/11/09 05:30:50;;;;;;;36.23;16.63;;;;;;;12.67;100.00;1706.69;5053174;28;20667;-57
2022/11/09 05:33:17;;;;;;;30.83;16.43;;;;;;;12.60;100.00;2989.28;5051306;28;20185;-57
2022/11/09 05:35:44;;;;;;;37.30;17.67;;;;;;;12.75;100.00;2028.16;5051493;28;20623;-57
2022/11/09 05:38:11;;;;;;;34.73;17.00;;;;;;;12.46;100.00;2346.38;5051417;28;20208;-58
2022/11/09 05:40:39;;;;;;;39.47;16.90;;;;;;;12.78;100.00;2349.28;5050995;28;20209;-57
2022/11/09 05:43:07;;;;;;;37.30;18.50;;;;;;;12.86;100.00;2029.09;5050979;28;20190;-57
2022/11/09 05:45:34;;;;;;;41.83;20.27;;;;;;;12.85;100.00;2991.78;5051361;28;20193;-58
2022/11/09 05:48:03;;;;;;;28.50;18.90;;;;;;;12.95;100.00;3956.03;5051773;28;20208;-57
2022/11/09 05:50:30;;;;;;;26.23;17.77;;;;;;;12.98;100.00;4920.03;5055108;28;20192;-57
2022/11/09 05:52:59;;;;;;;38.97;21.63;;;;;;;13.08;100.00;6206.81;5054855;28;20276;-57
2022/11/09 05:55:26;;;;;;;27.83;19.07;;;;;;;13.09;100.00;7814.50;5055034;28;20192;-57
2022/11/09 05:57:53;;;;;;;42.50;23.23;;;;;;;13.17;100.00;9424.44;5055078;28;20196;-56
2022/11/09 06:00:22;;;;;;;43.73;24.70;;;;;;;13.17;100.00;10389.84;5054660;28;20205;-53
2022/11/09 06:02:49;;;;;;;38.10;23.97;;;;;;;12.93;100.00;8454.56;5055146;28;20208;-52
2022/11/09 06:05:16;;;;;;;39.70;24.13;;;;;;;13.08;100.00;8135.91;5054644;28;20181;-52
2022/11/09 06:07:43;;;;;;;43.27;25.77;;;;;;;13.01;100.00;7170.03;5054429;28;20185;-53
2022/11/09 06:10:11;;;;;;;53.67;28.10;;;;;;;13.11;100.00;6528.72;5054548;28;20196;-57
2022/11/09 06:12:38;;;;;;;52.50;28.93;;;;;;;13.27;100.00;7496.00;5054590;28;20186;-58
2022/11/09 06:15:05;;;;;;;51.93;29.00;;;;;;;13.39;100.00;9106.91;5054593;28;20193;-57
2022/11/09 06:17:34;;;;;;;53.77;29.60;;;;;;;13.43;100.00;12328.25;5054734;28;20189;-57
2022/11/09 06:20:01;;;;;;;56.13;31.30;;;;;;;13.59;100.00;14266.41;5054696;28;20686;-58
2022/11/09 06:22:28;;;;;;;51.07;29.57;;;;;;;13.61;100.00;14267.00;5054602;28;20613;-57
2022/11/09 06:24:54;;;;;;;47.93;30.50;;;;;;;13.68;100.00;14914.09;5036648;28;20186;-57
2022/11/09 06:27:21;;;;;;;47.20;25.13;;;;;;;13.75;100.00;15884.16;5054536;28;20652;-62
2022/11/09 06:29:48;;;;;;;51.03;24.97;;;;;;;13.62;100.00;20400.34;5054270;28;20192;-62
2022/11/09 06:32:15;;;;;;;65.33;24.70;;;;;;;13.64;100.00;21370.34;5053952;28;20324;-61
2022/11/09 06:34:47;;;;;;;57.40;23.80;;;;;;;13.82;100.00;22024.22;5054393;28;20568;-62
2022/11/09 06:37:15;;;;;;;50.73;24.80;;;;;;;13.80;100.00;25258.31;5054162;28;20189;-63
2022/11/09 06:39:43;;;;;;;57.47;23.53;;;;;;;13.80;100.00;23640.44;5053917;28;20205;-56
2022/11/09 06:42:10;;;;;;;47.13;23.23;;;;;;;13.70;100.00;22342.56;5054889;28;20604;-57
2022/11/09 06:44:37;;;;;;;49.00;23.00;;;;;;;13.83;100.00;22671.41;5054380;28;20211;-58
2022/11/09 06:47:04;;;;;;;46.87;22.47;;;;;;;13.94;100.00;24293.56;5054184;28;20201;-57
2022/11/09 06:49:30;;;;;;;59.07;21.47;;;;;;;13.88;100.00;23967.50;5054260;28;20575;-57
2022/11/09 06:51:59;;;;;;;48.70;21.57;;;;;;;13.96;100.00;24618.34;5053771;28;20273;-58
2022/11/09 06:54:26;;;;;;;47.90;22.07;;;;;;;14.01;100.00;25915.66;5053881;28;20186;-57
2022/11/09 06:56:54;;;;;;;38.33;21.63;;;;;;;14.04;100.00;26240.94;5053968;28;20189;-56
2022/11/09 06:59:21;;;;;;;44.50;20.90;;;;;;;14.00;100.00;23649.00;5052739;28;20236;-57
2022/11/09 07:01:48;;;;;;;50.67;21.70;;;;;;;13.97;100.00;22030.19;5053258;28;20537;-57
2022/11/09 07:04:15;;;;;;;38.50;21.80;;;;;;;13.93;100.00;20411.94;5052844;28;20219;-56
2022/11/09 07:06:43;;;;;;;29.47;15.03;;;;;;;14.01;100.00;21061.66;5053501;28;20189;-55
2022/11/09 07:09:12;;;;;;;27.10;15.33;;;;;;;13.87;100.00;22996.53;5053684;28;20189;-56
2022/11/09 07:11:39;;;;;;;20.50;15.23;;;;;;;14.00;100.00;21708.00;5053301;28;20192;-57
2022/11/09 07:14:06;;;;;;;39.07;15.60;;;;;;;14.10;100.00;21065.22;5053616;28;20232;-56
2022/11/09 07:16:33;;;;;;;30.43;16.20;;;;;;;14.19;100.00;23657.56;5052810;28;20205;-56
2022/11/09 07:19:02;;;;;;;35.40;15.67;;;;;;;14.25;100.00;24307.50;5053055;28;20660;-56
2022/11/09 07:21:29;;;;;;;28.97;15.30;;;;;;;14.31;100.00;24957.69;5053254;28;20186;-56
2022/11/09 07:23:56;;;;;;;67.47;29.23;;;;;;;14.30;100.00;26901.06;5035723;28;20195;-57
2022/11/09 07:26:24;;;;;;;57.27;34.43;;;;;;;14.37;100.00;27228.63;5053053;28;20193;-56
2022/11/09 07:28:51;;;;;;;79.77;48.67;;;;;;;14.28;100.00;26576.03;5052948;28;20185;-56
2022/11/09 07:31:18;;;;;;;92.33;58.37;;;;;;;14.26;100.00;25279.25;5052801;28;20229;-56
2022/11/09 07:33:45;;;;;;;97.20;57.70;;;;;;;14.36;100.00;26256.13;5053209;28;20192;-57
2022/11/09 07:36:12;;;;;;;93.03;52.17;;;;;;;14.27;100.00;29817.56;5035010;28;20189;-56
2022/11/09 07:38:39;;;;;;;142.90;80.87;;;;;;;14.37;100.00;35991.75;5053075;28;20190;-57
2022/11/09 07:41:06;;;;;;;143.43;91.77;;;;;;;14.52;100.00;36651.56;5052869;28;20571;-56
2022/11/09 07:43:35;;;;;;;172.97;106.43;;;;;;;14.60;100.00;44795.91;5052715;28;20244;-56
2022/11/09 07:46:04;;;;;;;167.33;102.33;;;;;;;14.57;100.00;48707.59;5035242;28;20190;-57
2022/11/09 07:48:31;;;;;;;152.73;88.57;;;;;;;14.54;100.00;50337.00;5052382;28;20201;-57
2022/11/09 07:51:01;;;;;;;142.73;81.50;;;;;;;14.58;100.00;51646.25;5052320;28;20181;-57
2022/11/09 07:53:31;;;;;;;120.13;70.33;;;;;;;14.59;100.00;56877.56;5034694;28;20203;-57
2022/11/09 07:55:58;;;;;;;122.70;67.83;;;;;;;14.54;100.00;59817.28;5052058;28;20222;-56
2022/11/09 07:58:27;;;;;;;112.93;63.07;;;;;;;14.55;100.00;54911.09;5052829;28;20190;-57
2022/11/09 08:00:58;;;;;;;124.60;70.47;;;;;;;14.57;100.00;56548.00;5052730;28;20228;-57
2022/11/09 08:03:25;;;;;;;128.30;70.73;;;;;;;14.60;100.00;60478.34;5052380;28;20186;-60
2022/11/09 08:05:52;;;;;;;124.57;70.87;;;;;;;14.42;100.00;63734.91;5052133;28;20185;-56
2022/11/09 08:08:19;;;;;;;126.83;72.03;;;;;;;14.82;100.00;64762.16;5052006;28;20182;-57
2022/11/09 08:10:50;;;;;;;150.33;73.13;;;;;;;14.84;100.00;67061.81;5051922;28;20181;-56
2022/11/09 08:13:17;;;;;;;141.77;72.97;;;;;;;14.90;100.00;69695.88;5052041;28;20281;-55
2022/11/09 08:15:44;;;;;;;125.67;68.83;;;;;;;14.97;100.00;70689.47;5051687;28;20315;-57
2022/11/09 08:18:16;;;;;;;115.17;69.23;;;;;;;14.95;100.00;73975.66;5051857;28;20277;-56
2022/11/09 08:20:43;;;;;;;146.53;71.77;;;;;;;14.95;100.00;72002.47;5051917;28;20205;-56
2022/11/09 08:23:11;;;;;;;139.73;66.50;;;;;;;15.02;100.00;72011.09;5051605;28;20277;-56
2022/11/09 08:25:38;;;;;;;122.67;66.40;;;;;;;15.07;100.00;73332.88;5051702;28;20190;-56
2022/11/09 08:28:05;;;;;;;129.10;64.83;;;;;;;15.12;100.00;75641.53;5051465;28;20185;-57
2022/11/09 08:30:33;;;;;;;125.10;63.60;;;;;;;15.25;100.00;77635.25;5051696;28;20200;-58
2022/11/09 08:33:01;;;;;;;102.53;58.57;;;;;;;15.24;100.00;79610.56;5069452;28;20271;-57
2022/11/09 08:35:30;;;;;;;95.67;55.47;;;;;;;15.08;100.00;88500.00;5071576;28;20185;-57
2022/11/09 08:38:01;;;;;;;102.40;56.67;;;;;;;15.05;100.00;81893.75;5071438;28;20181;-56
2022/11/09 08:40:28;;;;;;;96.53;53.50;;;;;;;15.14;100.00;79267.41;5071387;28;20211;-57
2022/11/09 08:42:55;;;;;;;104.27;53.23;;;;;;;15.12;100.00;81572.31;5071191;28;20606;-57
2022/11/09 08:45:22;;;;;;;98.60;52.47;;;;;;;15.09;100.00;78602.97;5083613;28;20660;-56
2022/11/09 08:47:49;;;;;;;95.63;49.17;;;;;;;15.05;100.00;74975.50;5092450;28;20580;-56
2022/11/09 08:50:26;;;;;;;72.70;40.63;;;;;;;15.11;100.00;74324.34;5092144;28;20606;-57
2022/11/09 08:52:54;;;;;;;81.90;43.97;;;;;;;15.31;100.00;76983.63;5062038;28;20694;-57
2022/11/09 08:55:22;;;;;;;63.37;38.40;;;;;;;15.34;100.00;81932.88;5071292;28;20258;-57
2022/11/09 08:57:49;;;;;;;56.77;35.33;;;;;;;15.66;100.00;89578.31;5071310;28;20184;-56
2022/11/09 09:00:16;;;;;;;59.67;34.30;;;;;;;15.77;100.00;99867.88;5063404;28;20575;-57
2022/11/09 09:02:46;;;;;;;59.03;34.47;;;;;;;15.93;100.00;101554.34;5071465;28;20268;-58
2022/11/09 09:05:13;;;;;;;66.17;33.87;;;;;;;16.03;100.00;104561.50;5071385;28;20204;-56
2022/11/09 09:07:41;;;;;;;67.63;35.27;;;;;;;16.11;100.00;102913.63;5070984;28;20188;-58
2022/11/09 09:10:09;;;;;;;56.70;34.40;;;;;;;16.18;100.00;112912.34;5071366;28;20269;-57
2022/11/09 09:12:37;;;;;;;67.30;34.87;;;;;;;15.96;100.00;131580.66;5071321;28;20535;-57
2022/11/09 09:15:08;;;;;;;54.40;33.37;;;;;;;16.21;100.00;120259.41;5071330;28;20224;-56
2022/11/09 09:17:35;;;;;;;57.27;31.73;;;;;;;16.32;100.00;125630.50;5070990;28;20246;-58
2022/11/09 09:20:02;;;;;;;57.23;28.63;;;;;;;15.97;100.00;118876.16;5070913;28;20204;-57
2022/11/09 09:22:34;;;;;;;42.57;27.57;;;;;;;15.93;100.00;105210.41;5071514;28;20228;-56
2022/11/09 09:25:01;;;;;;;57.27;29.13;;;;;;;16.12;100.00;105575.13;5075084;28;20260;-57
2022/11/09 09:27:29;;;;;;;64.00;29.17;;;;;;;16.20;100.00;108585.44;5075726;28;20191;-56
2022/11/09 09:29:56;;;;;;;53.70;29.07;;;;;;;16.30;100.00;116937.38;5075354;28;20191;-56
2022/11/09 09:32:23;;;;;;;53.33;27.33;;;;;;;16.26;100.00;115595.69;5075003;28;20614;-57
2022/11/09 09:34:50;;;;;;;55.33;28.73;;;;;;;16.30;100.00;107605.03;5074991;28;20185;-58
2022/11/09 09:37:18;;;;;;;60.70;28.90;;;;;;;16.28;100.00;113930.84;5075150;28;20189;-57
2022/11/09 09:39:45;;;;;;;72.17;26.20;;;;;;;16.31;100.00;115938.16;5074886;28;20216;-56
2022/11/09 09:42:17;;;;;;;53.33;26.63;;;;;;;16.41;100.00;116960.19;5074835;28;20185;-57
2022/11/09 09:44:54;;;;;;;48.67;26.43;;;;;;;16.34;100.00;114609.50;5074941;28;20197;-57
2022/11/09 09:47:28;;;;;;;52.03;27.37;;;;;;;16.46;100.00;108632.41;5075135;28;20196;-57
2022/11/09 09:49:59;;;;;;;42.23;26.83;;;;;;;16.38;100.00;109284.69;5075028;28;20189;-56
2022/11/09 09:52:38;;;;;;;52.90;30.77;;;;;;;16.35;100.00;115612.34;5074769;28;20220;-58
2022/11/09 09:55:10;;;;;;;55.90;31.30;;;;;;;16.28;100.00;118936.59;5074737;28;20184;-57
2022/11/09 09:57:37;;;;;;;64.50;34.20;;;;;;;16.41;100.00;117961.84;5075223;28;20184;-57
2022/11/09 10:00:09;;;;;;;68.03;34.63;;;;;;;16.49;100.00;121652.47;5074809;28;20332;-56
2022/11/09 10:02:37;;;;;;;55.03;32.87;;;;;;;16.41;100.00;124980.41;5074799;28;20196;-56
2022/11/09 10:05:10;;;;;;;41.70;27.33;;;;;;;16.44;100.00;114295.31;5074717;28;20268;-56
2022/11/09 10:07:45;;;;;;;41.20;29.57;;;;;;;16.10;100.00;94945.84;5074848;28;20563;-57
2022/11/09 10:10:39;;;;;;;42.27;28.17;;;;;;;16.07;100.00;83686.34;5074706;28;20233;-57
2022/11/09 10:13:38;;;;;;;48.03;27.43;;;;;;;16.19;100.00;85356.59;5067737;28;20201;-58
2022/11/09 10:16:15;;;;;;;42.70;25.50;;;;;;;16.23;100.00;83708.47;5074565;28;20543;-57
2022/11/09 10:18:56;;;;;;;42.60;23.77;;;;;;;16.29;100.00;81404.34;5074321;28;20204;-57
2022/11/09 10:21:31;;;;;;;36.83;23.33;;;;;;;16.27;100.00;81731.22;5074462;28;20635;-57
2022/11/09 10:24:13;;;;;;;32.50;21.37;;;;;;;16.20;100.00;79739.91;5074548;28;20654;-56
2022/11/09 10:26:45;;;;;;;43.57;21.37;;;;;;;16.20;100.00;73802.00;5074142;28;20193;-56
2022/11/09 10:29:22;;;;;;;40.77;19.93;;;;;;;16.03;100.00;59969.28;5074162;28;20224;-58
2022/11/09 10:31:53;;;;;;;27.83;19.23;;;;;;;16.12;100.00;58010.31;5056324;28;20232;-57
2022/11/09 10:34:25;;;;;;;25.00;14.30;;;;;;;16.13;100.00;62607.00;5073915;28;20185;-56
2022/11/09 10:36:59;;;;;;;11.90;10.17;;;;;;;16.07;100.00;73456.06;5069526;28;20180;-57
2022/11/09 10:39:33;;;;;;;12.10;10.87;;;;;;;15.98;100.00;74104.97;5069425;28;20195;-57
2022/11/09 10:41:59;;;;;;;13.57;10.17;;;;;;;16.01;100.00;67852.81;5073321;28;20201;-56
2022/11/09 10:44:26;;;;;;;11.37;10.53;;;;;;;15.97;100.00;63247.16;5074195;28;20199;-56
2022/11/09 10:47:08;;;;;;;11.77;10.67;;;;;;;15.87;100.00;61266.38;5074120;28;20251;-57
2022/11/09 10:49:35;;;;;;;17.97;11.13;;;;;;;16.04;100.00;60626.72;5074025;28;20628;-56
2022/11/09 10:52:03;;;;;;;13.27;9.63;;;;;;;16.05;100.00;72135.84;5073394;28;20189;-57
2022/11/09 10:54:33;;;;;;;12.23;9.50;;;;;;;16.10;100.00;76426.72;5074227;28;20181;-56
2022/11/09 10:57:10;;;;;;;9.70;8.70;;;;;;;16.06;100.00;84675.78;5073784;28;20184;-56
2022/11/09 10:59:44;;;;;;;10.73;9.03;;;;;;;16.03;100.00;93608.66;5074208;28;20192;-57
2022/11/09 11:02:42;;;;;;;10.73;9.27;;;;;;;16.03;100.00;89302.25;5074607;28;20266;-57
2022/11/09 11:05:30;;;;;;;18.67;10.43;;;;;;;16.03;100.00;86986.06;5073762;28;20185;-57
2022/11/09 11:07:57;;;;;;;10.40;9.20;;;;;;;16.08;100.00;93948.06;5073528;28;20189;-56
2022/11/09 11:10:27;;;;;;;9.37;8.60;;;;;;;16.03;100.00;106224.16;5073604;28;20207;-57
2022/11/09 11:13:23;;;;;;;9.00;8.13;;;;;;;15.95;100.00;105878.97;5073617;28;20189;-57
2022/11/09 11:15:50;;;;;;;9.67;8.97;;;;;;;15.92;100.00;99561.38;5073317;28;20651;-56
2022/11/09 11:18:22;;;;;;;8.83;8.23;;;;;;;15.93;100.00;98898.44;5065381;28;20631;-58